Time;durP1;ratioP1;P1;durP2;ratioP2;P2;SDS_P1;SDS_P2;PMS_P1;PMS_P2;Temp;Humidity;BMP_temperature;BMP_pressure;BME280_temperature;BME280_humidity;BME280_pressure;Samples;Min_cycle;Max_cycle;Signal;HPM_P1;HPM_P2
2023/12/31 00:00:39;;;;;;;53.40;35.67;;;;;;;3.06;100.00;99518.47;5055134;28;20384;-87
2023/12/31 00:03:04;;;;;;;66.75;41.78;;;;;;;3.26;100.00;99536.16;5054868;28;20104;-88
2023/12/31 00:05:30;;;;;;;84.78;49.63;;;;;;;3.33;100.00;99532.59;5053405;28;20475;-88
2023/12/31 00:07:55;;;;;;;64.57;36.28;;;;;;;3.31;100.00;99542.03;5053589;28;20081;-88
2023/12/31 00:10:21;;;;;;;57.00;35.08;;;;;;;3.25;100.00;99531.88;5053189;28;20031;-88
2023/12/31 00:12:47;;;;;;;56.00;36.47;;;;;;;3.25;100.00;99532.72;5054640;28;20460;-88
2023/12/31 00:15:13;;;;;;;61.72;36.70;;;;;;;3.20;100.00;99525.94;5053304;28;20021;-87
2023/12/31 00:17:38;;;;;;;41.33;26.63;;;;;;;3.24;100.00;99520.75;5054283;28;20021;-87
2023/12/31 00:20:05;;;;;;;37.03;24.77;;;;;;;3.13;100.00;99504.63;5054427;28;20024;-87
2023/12/31 00:22:30;;;;;;;36.95;22.13;;;;;;;3.09;100.00;99492.72;5054458;28;20368;-87
2023/12/31 00:24:56;;;;;;;37.20;21.08;;;;;;;3.03;100.00;99469.66;5053361;28;20035;-87
2023/12/31 00:27:21;;;;;;;32.00;19.60;;;;;;;3.17;100.00;99483.13;5054282;28;20013;-88
2023/12/31 00:29:48;;;;;;;36.92;21.30;;;;;;;3.00;100.00;99459.44;5053432;28;20098;-87
2023/12/31 00:32:14;;;;;;;32.25;18.50;;;;;;;3.24;100.00;99512.13;5053252;28;20023;-87
2023/12/31 00:34:39;;;;;;;35.95;21.55;;;;;;;3.20;100.00;99513.06;5069614;28;20087;-87
2023/12/31 00:37:05;;;;;;;37.75;23.80;;;;;;;3.32;100.00;99524.88;5074624;28;20640;-88
2023/12/31 00:39:30;;;;;;;29.58;19.35;;;;;;;3.19;100.00;99508.81;5074327;28;20016;-87
2023/12/31 00:41:56;;;;;;;35.75;20.92;;;;;;;3.25;100.00;99513.88;5072969;28;20025;-88
2023/12/31 00:44:21;;;;;;;31.02;18.95;;;;;;;3.30;100.00;99516.34;5072512;28;20036;-87
2023/12/31 00:46:46;;;;;;;32.20;19.33;;;;;;;3.23;100.00;99500.16;5073662;28;20103;-87
2023/12/31 00:49:12;;;;;;;27.90;18.42;;;;;;;2.90;100.00;99453.59;5073615;28;20028;-87
2023/12/31 00:51:37;;;;;;;25.73;17.08;;;;;;;3.09;100.00;99482.41;5072329;28;20370;-88
2023/12/31 00:54:03;;;;;;;26.75;16.50;;;;;;;3.06;100.00;99467.03;5072502;28;20086;-87
2023/12/31 00:56:28;;;;;;;28.63;16.10;;;;;;;3.16;100.00;99499.44;5073602;28;20024;-87
2023/12/31 00:58:54;;;;;;;26.48;14.18;;;;;;;3.19;100.00;99507.09;5073781;28;20498;-87
2023/12/31 01:01:19;;;;;;;27.25;15.32;;;;;;;3.17;100.00;99513.16;5071946;28;20024;-87
2023/12/31 01:03:45;;;;;;;32.60;17.17;;;;;;;2.70;100.00;99461.69;5073937;28;20047;-87
2023/12/31 01:06:10;;;;;;;29.08;17.45;;;;;;;2.88;100.00;99487.97;5072205;28;20432;-87
2023/12/31 01:08:36;;;;;;;26.33;15.13;;;;;;;3.00;100.00;99498.88;5073278;28;20078;-88
2023/12/31 01:11:02;;;;;;;25.55;15.48;;;;;;;2.91;100.00;99498.19;5073737;28;20028;-87
2023/12/31 01:13:28;;;;;;;35.72;19.67;;;;;;;2.92;100.00;99502.47;5073187;28;20025;-87
2023/12/31 01:15:53;;;;;;;38.90;24.95;;;;;;;3.07;100.00;99514.19;5073367;28;20052;-87
2023/12/31 01:18:20;;;;;;;26.10;15.15;;;;;;;3.05;100.00;99501.34;5071911;28;20426;-87
2023/12/31 01:20:45;;;;;;;25.83;14.27;;;;;;;2.96;100.00;99489.50;5071864;28;20475;-87
2023/12/31 01:23:11;;;;;;;23.90;14.27;;;;;;;3.06;100.00;99499.63;5071937;28;20024;-87
2023/12/31 01:25:36;;;;;;;19.67;14.18;;;;;;;3.04;100.00;99486.81;5071784;28;20018;-87
2023/12/31 01:28:02;;;;;;;30.05;15.90;;;;;;;3.13;100.00;99501.22;5073557;28;20400;-87
2023/12/31 01:30:28;;;;;;;28.33;14.77;;;;;;;3.17;100.00;99518.31;5071635;28;20027;-87
2023/12/31 01:32:54;;;;;;;29.90;14.98;;;;;;;3.07;100.00;99504.75;5072060;28;20032;-87
2023/12/31 01:35:19;;;;;;;26.48;14.63;;;;;;;3.03;100.00;99500.53;5073021;28;20029;-88
2023/12/31 01:37:48;;;;;;;28.05;14.70;;;;;;;3.02;100.00;99487.69;5073472;28;20387;-87
2023/12/31 01:40:13;;;;;;;25.90;13.38;;;;;;;3.10;100.00;99494.41;5073478;28;20020;-87
2023/12/31 01:42:39;;;;;;;27.77;14.48;;;;;;;3.08;100.00;99492.75;5072799;28;20032;-87
2023/12/31 01:45:05;;;;;;;31.42;15.48;;;;;;;2.90;100.00;99465.63;5071666;28;20390;-87
2023/12/31 01:47:35;;;;;;;24.88;13.68;;;;;;;3.03;100.00;99494.53;5070914;28;20035;-87
2023/12/31 01:50:02;;;;;;;26.30;13.80;;;;;;;2.97;100.00;99493.78;5072827;28;20033;-87
2023/12/31 01:52:29;;;;;;;25.73;15.23;;;;;;;2.83;100.00;99479.47;5071202;28;20024;-88
2023/12/31 01:54:57;;;;;;;25.42;14.05;;;;;;;2.81;100.00;99471.78;5069985;28;20032;-88
2023/12/31 01:57:28;;;;;;;21.88;12.40;;;;;;;3.00;100.00;99516.88;5053021;28;20436;-87
2023/12/31 01:59:55;;;;;;;24.88;13.32;;;;;;;3.02;100.00;99509.13;5053084;28;20380;-87
2023/12/31 02:02:22;;;;;;;20.55;12.07;;;;;;;2.85;100.00;99485.44;5069743;28;20024;-88
2023/12/31 02:04:48;;;;;;;23.77;12.60;;;;;;;2.86;100.00;99502.56;5053229;28;20039;-87
2023/12/31 02:07:14;;;;;;;21.25;12.30;;;;;;;2.99;100.00;99517.78;5053300;28;20150;-87
2023/12/31 02:09:39;;;;;;;23.40;12.90;;;;;;;2.90;100.00;99499.91;5052838;28;20750;-87
2023/12/31 02:12:05;;;;;;;20.63;11.73;;;;;;;2.91;100.00;99504.19;5069994;28;20036;-87
2023/12/31 02:14:31;;;;;;;27.00;14.07;;;;;;;2.81;100.00;99476.06;5070041;28;20042;-87
2023/12/31 02:16:56;;;;;;;25.88;13.55;;;;;;;2.84;100.00;99491.47;5053250;28;20056;-87
2023/12/31 02:19:22;;;;;;;24.27;13.63;;;;;;;2.93;100.00;99501.59;5070049;28;20020;-87
2023/12/31 02:21:48;;;;;;;28.15;13.88;;;;;;;2.92;100.00;99503.31;5070035;28;20448;-87
2023/12/31 02:24:15;;;;;;;27.48;14.07;;;;;;;2.87;100.00;99496.56;5070009;28;20109;-88
2023/12/31 02:26:40;;;;;;;24.73;14.00;;;;;;;2.87;100.00;99505.13;5066899;28;20115;-87
2023/12/31 02:29:06;;;;;;;22.65;12.55;;;;;;;2.84;100.00;99494.88;5072640;28;20157;-87
2023/12/31 02:31:33;;;;;;;21.33;11.77;;;;;;;2.79;100.00;99496.69;5072244;28;20020;-87
2023/12/31 02:33:59;;;;;;;24.50;11.85;;;;;;;2.67;100.00;99466.03;5071131;28;20016;-87
2023/12/31 02:36:24;;;;;;;18.90;11.65;;;;;;;2.70;100.00;99486.56;5071141;28;20020;-88
2023/12/31 02:38:50;;;;;;;20.98;12.38;;;;;;;2.77;100.00;99498.41;5072462;28;20025;-88
2023/12/31 02:41:15;;;;;;;22.08;12.25;;;;;;;2.79;100.00;99495.84;5070956;28;20025;-88
2023/12/31 02:43:41;;;;;;;23.23;12.27;;;;;;;2.73;100.00;99494.22;5070898;28;20031;-87
2023/12/31 02:46:06;;;;;;;23.33;12.68;;;;;;;2.58;100.00;99476.50;5071088;28;20028;-88
2023/12/31 02:48:32;;;;;;;24.52;13.45;;;;;;;2.56;100.00;99455.94;5070918;28;20444;-87
2023/12/31 02:50:57;;;;;;;22.58;13.07;;;;;;;2.68;100.00;99472.88;5071146;28;20032;-88
2023/12/31 02:53:22;;;;;;;23.77;12.55;;;;;;;2.70;100.00;99489.97;5071125;28;20019;-87
2023/12/31 02:55:48;;;;;;;22.73;12.75;;;;;;;2.61;100.00;99478.97;5072200;28;20024;-88
2023/12/31 02:58:13;;;;;;;21.65;13.23;;;;;;;2.29;100.00;99436.69;5070895;28;20359;-88
2023/12/31 03:00:41;;;;;;;26.90;17.13;;;;;;;2.44;100.00;99469.84;5074181;28;20127;-87
2023/12/31 03:03:06;;;;;;;22.70;14.63;;;;;;;2.53;100.00;99467.97;5074563;28;20098;-87
2023/12/31 03:05:32;;;;;;;27.88;16.92;;;;;;;2.53;100.00;99474.00;5075335;28;20021;-87
2023/12/31 03:07:57;;;;;;;28.38;16.80;;;;;;;2.54;100.00;99470.53;5076153;28;20020;-88
2023/12/31 03:10:23;;;;;;;23.05;15.13;;;;;;;2.46;100.00;99457.81;5074805;28;20051;-88
2023/12/31 03:12:48;;;;;;;25.38;16.85;;;;;;;2.53;100.00;99468.84;5075869;28;20020;-87
2023/12/31 03:15:13;;;;;;;24.25;15.60;;;;;;;2.47;100.00;99469.78;5074482;28;20020;-88
2023/12/31 03:17:39;;;;;;;25.65;15.50;;;;;;;2.29;100.00;99425.56;5075368;28;20025;-87
2023/12/31 03:20:05;;;;;;;22.35;15.20;;;;;;;2.42;100.00;99453.59;5075227;28;20097;-88
2023/12/31 03:22:30;;;;;;;23.25;13.73;;;;;;;2.46;100.00;99467.25;5075193;28;20024;-87
2023/12/31 03:24:56;;;;;;;23.80;15.07;;;;;;;2.24;100.00;99443.63;5075171;28;20371;-87
2023/12/31 03:27:21;;;;;;;23.40;14.38;;;;;;;2.42;100.00;99468.19;5074080;28;20025;-87
2023/12/31 03:29:47;;;;;;;21.85;13.80;;;;;;;2.48;100.00;99465.50;5075256;28;20055;-87
2023/12/31 03:32:12;;;;;;;23.38;13.38;;;;;;;2.54;100.00;99467.97;5075362;28;20142;-87
2023/12/31 03:34:38;;;;;;;19.25;12.52;;;;;;;2.40;100.00;99436.50;5074848;28;20376;-88
2023/12/31 03:37:03;;;;;;;22.48;12.95;;;;;;;2.51;100.00;99462.88;5075290;28;20027;-87
2023/12/31 03:39:29;;;;;;;23.10;13.63;;;;;;;2.41;100.00;99451.91;5075019;28;20117;-87
2023/12/31 03:41:54;;;;;;;22.83;13.45;;;;;;;2.47;100.00;99448.38;5075163;28;20024;-87
2023/12/31 03:44:19;;;;;;;19.77;13.38;;;;;;;2.46;100.00;99449.25;5073785;28;20115;-87
2023/12/31 03:46:45;;;;;;;21.38;11.88;;;;;;;2.48;100.00;99450.91;5074600;28;20094;-87
2023/12/31 03:49:11;;;;;;;21.13;11.98;;;;;;;2.34;100.00;99421.19;5073697;28;20020;-88
2023/12/31 03:51:37;;;;;;;17.13;11.95;;;;;;;2.31;100.00;99418.66;5073391;28;20029;-87
2023/12/31 03:54:02;;;;;;;20.23;13.00;;;;;;;2.44;100.00;99448.41;5074843;28;20020;-87
2023/12/31 03:56:28;;;;;;;25.83;15.70;;;;;;;2.46;100.00;99462.97;5073553;28;20032;-87
2023/12/31 03:58:53;;;;;;;24.02;14.90;;;;;;;1.93;100.00;99381.59;5073453;28;20040;-87
2023/12/31 04:01:18;;;;;;;23.48;13.95;;;;;;;2.09;100.00;99420.75;5073550;28;20402;-88
2023/12/31 04:03:44;;;;;;;26.40;14.50;;;;;;;2.29;100.00;99454.69;5071823;28;20040;-87
2023/12/31 04:06:09;;;;;;;27.85;15.30;;;;;;;2.26;100.00;99459.84;5055633;28;20490;-87
2023/12/31 04:08:35;;;;;;;26.60;15.00;;;;;;;2.16;100.00;99453.19;5071952;28;20459;-87
2023/12/31 04:11:00;;;;;;;23.83;15.07;;;;;;;2.23;100.00;99447.06;5054887;28;20025;-87
2023/12/31 04:13:28;;;;;;;20.10;13.68;;;;;;;2.17;100.00;99432.59;5071982;28;20040;-87
2023/12/31 04:15:54;;;;;;;29.02;15.20;;;;;;;2.20;100.00;99452.25;5055144;28;20490;-87
2023/12/31 04:18:19;;;;;;;23.98;14.07;;;;;;;2.13;100.00;99440.38;5055359;28;20123;-87
2023/12/31 04:20:44;;;;;;;31.63;18.25;;;;;;;2.03;100.00;99428.56;5055094;28;20085;-87
2023/12/31 04:23:10;;;;;;;30.27;19.85;;;;;;;1.99;100.00;99431.16;5072084;28;20036;-87
2023/12/31 04:25:35;;;;;;;33.45;18.92;;;;;;;1.84;100.00;99418.53;5055010;28;20525;-87
2023/12/31 04:28:00;;;;;;;22.35;15.50;;;;;;;1.73;100.00;99413.59;5072199;28;20091;-88
2023/12/31 04:30:26;;;;;;;27.92;15.80;;;;;;;1.87;100.00;99426.22;5055115;28;20037;-87
2023/12/31 04:32:52;;;;;;;26.60;15.20;;;;;;;1.90;100.00;99426.19;5071497;28;20540;-86
2023/12/31 04:35:18;;;;;;;20.45;14.68;;;;;;;1.88;100.00;99419.34;5074065;28;20039;-87
2023/12/31 04:37:43;;;;;;;27.20;14.73;;;;;;;1.61;100.00;99380.38;5073530;28;20437;-87
2023/12/31 04:40:09;;;;;;;30.50;17.10;;;;;;;1.98;100.00;99426.91;5074362;28;20012;-87
2023/12/31 04:42:34;;;;;;;27.15;16.27;;;;;;;1.92;100.00;99410.72;5074936;28;20025;-87
2023/12/31 04:45:04;;;;;;;24.50;16.35;;;;;;;1.90;100.00;99407.34;5086837;28;20031;-88
2023/12/31 04:47:30;;;;;;;26.35;16.52;;;;;;;1.91;100.00;99409.88;5086361;28;20083;-87
2023/12/31 04:49:55;;;;;;;26.65;16.95;;;;;;;1.96;100.00;99422.66;5084681;28;20492;-87
2023/12/31 04:52:21;;;;;;;27.52;16.85;;;;;;;1.89;100.00;99403.91;5074475;28;20040;-87
2023/12/31 04:54:46;;;;;;;24.10;16.10;;;;;;;1.90;100.00;99405.63;5054495;28;20081;-87
2023/12/31 04:57:12;;;;;;;29.60;17.23;;;;;;;1.75;100.00;99370.75;5071256;28;20036;-87
2023/12/31 04:59:39;;;;;;;23.17;15.35;;;;;;;1.83;100.00;99395.47;5053931;28;20044;-87
2023/12/31 05:02:05;;;;;;;25.08;15.88;;;;;;;2.01;100.00;99431.13;5054206;28;20574;-87
2023/12/31 05:04:30;;;;;;;22.00;15.07;;;;;;;1.83;100.00;99392.91;5071097;28;20103;-87
2023/12/31 05:06:59;;;;;;;21.45;14.18;;;;;;;2.10;100.00;99425.84;5054013;28;20125;-87
2023/12/31 05:09:24;;;;;;;21.80;15.15;;;;;;;2.07;100.00;99412.22;5054181;28;20555;-87
2023/12/31 05:11:49;;;;;;;25.65;15.18;;;;;;;2.11;100.00;99412.16;5053896;28;20134;-87
2023/12/31 05:14:15;;;;;;;22.95;14.98;;;;;;;2.12;100.00;99408.69;5054170;28;20074;-87
2023/12/31 05:16:41;;;;;;;26.42;15.48;;;;;;;2.12;100.00;99406.13;5053804;28;20135;-87
2023/12/31 05:19:06;;;;;;;24.35;16.25;;;;;;;2.14;100.00;99413.81;5070785;28;20048;-87
2023/12/31 05:21:31;;;;;;;24.50;15.55;;;;;;;2.14;100.00;99411.22;5069868;28;20047;-87
2023/12/31 05:23:57;;;;;;;26.17;16.98;;;;;;;2.13;100.00;99406.97;5066432;28;20039;-87
2023/12/31 05:26:22;;;;;;;26.90;16.17;;;;;;;2.10;100.00;99404.44;5073505;28;20033;-87
2023/12/31 05:28:48;;;;;;;29.10;16.35;;;;;;;1.91;100.00;99367.94;5072575;28;20025;-86
2023/12/31 05:31:13;;;;;;;23.25;15.85;;;;;;;2.01;100.00;99387.47;5073096;28;20031;-87
2023/12/31 05:33:41;;;;;;;27.63;16.65;;;;;;;1.82;100.00;99343.25;5071535;28;20030;-87
2023/12/31 05:36:06;;;;;;;24.58;15.55;;;;;;;2.22;100.00;99401.69;5073063;28;20028;-87
2023/12/31 05:38:32;;;;;;;25.42;16.00;;;;;;;2.18;100.00;99390.59;5071712;28;20028;-87
2023/12/31 05:40:57;;;;;;;27.05;16.77;;;;;;;2.12;100.00;99370.16;5071526;28;20032;-87
2023/12/31 05:43:22;;;;;;;28.77;22.90;;;;;;;2.24;100.00;99377.66;5073201;28;20021;-87
2023/12/31 05:45:48;;;;;;;32.25;23.98;;;;;;;2.38;100.00;99387.69;5072699;28;20066;-87
2023/12/31 05:48:14;;;;;;;30.50;22.42;;;;;;;2.38;100.00;99366.28;5072672;28;20028;-87
2023/12/31 05:50:39;;;;;;;30.15;20.25;;;;;;;2.34;100.00;99347.50;5072890;28;20105;-87
2023/12/31 05:53:05;;;;;;;27.30;19.20;;;;;;;2.20;100.00;99324.63;5071499;28;20535;-87
2023/12/31 05:55:31;;;;;;;28.05;21.45;;;;;;;2.36;100.00;99353.47;5072895;28;20407;-87
2023/12/31 05:57:56;;;;;;;28.00;18.95;;;;;;;2.43;100.00;99362.75;5071256;28;20467;-87
2023/12/31 06:00:22;;;;;;;30.27;18.42;;;;;;;2.28;100.00;99350.19;5072642;28;20079;-87
2023/12/31 06:02:47;;;;;;;24.85;16.50;;;;;;;2.08;100.00;99322.28;5071362;28;20028;-87
2023/12/31 06:05:13;;;;;;;29.52;17.50;;;;;;;2.03;100.00;99316.38;5071511;28;20017;-87
2023/12/31 06:07:38;;;;;;;24.95;16.98;;;;;;;1.99;100.00;99310.44;5072561;28;20016;-87
2023/12/31 06:10:04;;;;;;;23.55;15.90;;;;;;;1.96;100.00;99318.19;5072682;28;20024;-87
2023/12/31 06:12:31;;;;;;;24.80;15.50;;;;;;;2.13;100.00;99345.31;5071297;28;20021;-87
2023/12/31 06:14:59;;;;;;;28.10;17.80;;;;;;;2.06;100.00;99336.00;5071282;28;20463;-87
2023/12/31 06:17:25;;;;;;;25.85;15.18;;;;;;;2.15;100.00;99333.28;5072694;28;20012;-88
2023/12/31 06:19:50;;;;;;;24.70;16.88;;;;;;;2.21;100.00;99339.16;5070772;28;20513;-87
2023/12/31 06:22:16;;;;;;;27.17;17.13;;;;;;;2.06;100.00;99320.59;5072662;28;20021;-87
2023/12/31 06:24:41;;;;;;;26.20;16.35;;;;;;;2.01;100.00;99307.84;5072325;28;20051;-88
2023/12/31 06:27:07;;;;;;;28.15;16.70;;;;;;;2.00;100.00;99308.72;5071229;28;20105;-88
2023/12/31 06:29:33;;;;;;;23.50;15.13;;;;;;;2.04;100.00;99307.78;5071256;28;20032;-88
2023/12/31 06:31:58;;;;;;;27.88;16.88;;;;;;;2.03;100.00;99308.69;5071039;28;20025;-87
2023/12/31 06:34:23;;;;;;;24.05;15.65;;;;;;;2.01;100.00;99295.00;5076215;28;20032;-87
2023/12/31 06:36:49;;;;;;;24.42;16.30;;;;;;;1.90;100.00;99263.53;5076431;28;20082;-87
2023/12/31 06:39:14;;;;;;;30.27;17.17;;;;;;;2.09;100.00;99282.88;5076572;28;20051;-87
2023/12/31 06:41:40;;;;;;;25.15;15.48;;;;;;;2.20;100.00;99298.94;5076185;28;20024;-87
2023/12/31 06:44:05;;;;;;;24.95;15.43;;;;;;;2.15;100.00;99285.34;5076803;28;20032;-87
2023/12/31 06:46:30;;;;;;;28.15;16.95;;;;;;;2.18;100.00;99281.84;5076021;28;20023;-88
2023/12/31 06:48:56;;;;;;;26.60;16.92;;;;;;;2.10;100.00;99273.44;5074700;28;20115;-87
2023/12/31 06:51:21;;;;;;;23.45;15.55;;;;;;;2.24;100.00;99292.03;5074798;28;20025;-87
2023/12/31 06:53:47;;;;;;;28.15;17.02;;;;;;;2.28;100.00;99298.81;5075942;28;20438;-88
2023/12/31 06:56:12;;;;;;;25.67;16.77;;;;;;;2.23;100.00;99293.75;5074818;28;20090;-87
2023/12/31 06:58:38;;;;;;;29.52;18.10;;;;;;;2.30;100.00;99294.47;5074633;28;20051;-87
2023/12/31 07:01:04;;;;;;;25.42;17.75;;;;;;;2.31;100.00;99295.31;5075778;28;20028;-88
2023/12/31 07:03:30;;;;;;;27.88;17.40;;;;;;;2.25;100.00;99284.28;5075997;28;20142;-87
2023/12/31 07:05:56;;;;;;;28.17;16.85;;;;;;;2.39;100.00;99307.13;5075675;28;20566;-87
2023/12/31 07:08:21;;;;;;;29.00;17.52;;;;;;;2.12;100.00;99248.56;5074639;28;20031;-87
2023/12/31 07:10:47;;;;;;;26.45;17.20;;;;;;;2.20;100.00;99262.13;5075888;28;20467;-87
2023/12/31 07:13:12;;;;;;;29.15;20.65;;;;;;;2.40;100.00;99293.44;5075434;28;20108;-87
2023/12/31 07:15:38;;;;;;;88.40;57.70;;;;;;;2.16;100.00;99239.94;5074680;28;20112;-87
2023/12/31 07:18:04;;;;;;;31.92;19.20;;;;;;;2.40;100.00;99277.13;5075795;28;20036;-87
2023/12/31 07:20:30;;;;;;;49.15;36.40;;;;;;;2.36;100.00;99267.78;5075847;28;20455;-87
2023/12/31 07:22:56;;;;;;;96.93;59.55;;;;;;;2.29;100.00;99253.41;5075501;28;20103;-87
2023/12/31 07:25:21;;;;;;;134.55;87.32;;;;;;;2.42;100.00;99275.41;5074432;28;20107;-87
2023/12/31 07:27:47;;;;;;;640.35;353.52;;;;;;;2.44;100.00;99282.22;5075353;28;20032;-87
2023/12/31 07:30:13;;;;;;;42.47;24.45;;;;;;;2.49;100.00;99287.25;5074272;28;20475;-86
2023/12/31 07:32:38;;;;;;;429.20;183.70;;;;;;;2.33;100.00;99245.59;5074350;28;20029;-87
2023/12/31 07:35:05;;;;;;;240.60;108.05;;;;;;;2.51;100.00;99275.22;5073837;28;20016;-87
2023/12/31 07:37:30;;;;;;;41.38;24.85;;;;;;;2.62;100.00;99278.44;5074615;28;20039;-87
2023/12/31 07:39:57;;;;;;;34.15;21.20;;;;;;;2.40;100.00;99239.47;5074899;28;20025;-87
2023/12/31 07:42:23;;;;;;;34.58;21.13;;;;;;;2.34;100.00;99220.72;5075856;28;20111;-87
2023/12/31 07:44:48;;;;;;;38.10;27.67;;;;;;;2.38;100.00;99212.94;5074700;28;20095;-87
2023/12/31 07:47:13;;;;;;;43.53;25.70;;;;;;;2.70;100.00;99263.69;5074565;28;20451;-88
2023/12/31 07:49:39;;;;;;;38.38;24.83;;;;;;;2.77;100.00;99263.56;5074323;28;20027;-87
2023/12/31 07:52:05;;;;;;;51.92;31.65;;;;;;;2.70;100.00;99245.69;5073845;28;20029;-87
2023/12/31 07:54:31;;;;;;;44.65;29.60;;;;;;;2.80;100.00;99253.19;5074029;28;20394;-87
2023/12/31 07:56:56;;;;;;;36.90;23.80;;;;;;;2.63;100.00;99215.84;5073379;28;20028;-87
2023/12/31 07:59:23;;;;;;;40.58;26.30;;;;;;;2.85;100.00;99241.09;5075109;28;20090;-87
2023/12/31 08:01:48;;;;;;;46.35;36.30;;;;;;;2.69;100.00;99215.69;5056322;28;20036;-87
2023/12/31 08:04:14;;;;;;;53.05;34.95;;;;;;;2.84;100.00;99240.25;5075286;28;20024;-88
2023/12/31 08:06:39;;;;;;;44.55;29.23;;;;;;;3.07;100.00;99270.59;5073952;28;20086;-89
2023/12/31 08:09:04;;;;;;;40.80;27.13;;;;;;;2.70;100.00;99206.28;5074047;28;20031;-89
2023/12/31 08:11:30;;;;;;;33.08;22.38;;;;;;;3.13;100.00;99267.91;5072162;28;20131;-89
2023/12/31 08:13:55;;;;;;;30.17;21.55;;;;;;;3.04;100.00;99251.84;5072180;28;20079;-89
2023/12/31 08:16:21;;;;;;;33.72;21.52;;;;;;;3.06;100.00;99247.47;5072815;28;20032;-89
2023/12/31 08:18:46;;;;;;;30.02;20.33;;;;;;;3.07;100.00;99252.59;5055169;28;20418;-88
2023/12/31 08:21:12;;;;;;;25.52;17.50;;;;;;;2.95;100.00;99222.84;5055697;28;20055;-89
2023/12/31 08:23:40;;;;;;;24.15;16.73;;;;;;;3.08;100.00;99235.44;5055883;28;20056;-89
2023/12/31 08:26:05;;;;;;;25.50;16.98;;;;;;;3.17;100.00;99237.81;5055470;28;20036;-88
2023/12/31 08:28:31;;;;;;;24.98;16.90;;;;;;;3.25;100.00;99243.63;5055519;28;20102;-89
2023/12/31 08:30:56;;;;;;;28.63;16.52;;;;;;;3.28;100.00;99237.53;5055923;28;20447;-89
2023/12/31 08:33:22;;;;;;;24.10;15.48;;;;;;;3.33;100.00;99241.72;5055396;28;20533;-88
2023/12/31 08:35:48;;;;;;;26.95;16.08;;;;;;;3.36;100.00;99230.47;5054932;28;20035;-88
2023/12/31 08:38:13;;;;;;;29.13;18.23;;;;;;;3.39;100.00;99233.81;5055331;28;20395;-88
2023/12/31 08:40:39;;;;;;;23.65;16.08;;;;;;;3.55;100.00;99254.06;5056478;28;20027;-88
2023/12/31 08:43:04;;;;;;;24.55;15.43;;;;;;;3.58;100.00;99254.84;5073962;28;20357;-87
2023/12/31 08:45:32;;;;;;;25.25;15.98;;;;;;;3.49;100.00;99232.72;5073428;28;20021;-87
2023/12/31 08:47:58;;;;;;;32.92;22.00;;;;;;;3.45;100.00;99214.81;5073954;28;20024;-87
2023/12/31 08:50:23;;;;;;;27.77;19.45;;;;;;;3.63;100.00;99234.97;5072869;28;20158;-85
2023/12/31 08:52:48;;;;;;;25.30;15.50;;;;;;;3.46;100.00;99201.91;5054980;28;20032;-83
2023/12/31 08:55:14;;;;;;;24.55;14.90;;;;;;;3.48;100.00;99189.84;5054039;28;20024;-83
2023/12/31 08:57:47;;;;;;;31.40;18.08;;;;;;;3.77;100.00;99237.19;5052706;28;20115;-84
2023/12/31 09:00:13;;;;;;;24.75;16.95;;;;;;;3.73;100.00;99226.09;5052107;28;20139;-84
2023/12/31 09:02:39;;;;;;;25.20;15.48;;;;;;;3.78;100.00;99233.72;5071323;28;20047;-83
2023/12/31 09:05:05;;;;;;;24.73;15.63;;;;;;;3.84;100.00;99236.16;5071136;28;20032;-86
2023/12/31 09:07:34;;;;;;;22.40;11.88;;;;;;;3.85;100.00;99242.97;5054362;28;20060;-86
2023/12/31 09:10:02;;;;;;;22.92;13.88;;;;;;;3.75;100.00;99215.78;5070816;28;20471;-86
2023/12/31 09:12:28;;;;;;;19.38;11.77;;;;;;;3.78;100.00;99210.53;5054529;28;20063;-85
2023/12/31 09:14:54;;;;;;;21.85;13.55;;;;;;;3.80;100.00;99202.78;5054166;28;20527;-85
2023/12/31 09:17:19;;;;;;;19.92;12.55;;;;;;;3.80;100.00;99188.16;5071110;28;20024;-84
2023/12/31 09:19:44;;;;;;;21.38;12.60;;;;;;;4.05;100.00;99226.16;5054022;28;20442;-84
2023/12/31 09:22:10;;;;;;;20.38;13.40;;;;;;;3.82;100.00;99170.94;5070571;28;20020;-84
2023/12/31 09:24:35;;;;;;;20.70;12.60;;;;;;;4.21;100.00;99224.84;5054250;28;20115;-84
2023/12/31 09:27:02;;;;;;;22.92;12.38;;;;;;;4.18;100.00;99214.63;5030351;28;20084;-84
2023/12/31 09:29:27;;;;;;;20.35;11.50;;;;;;;4.21;100.00;99201.63;5030956;28;20037;-86
2023/12/31 09:31:52;;;;;;;23.70;14.85;;;;;;;4.30;100.00;99198.84;5030417;28;20037;-85
2023/12/31 09:34:18;;;;;;;20.77;13.10;;;;;;;4.28;100.00;99194.59;5014069;28;20022;-84
2023/12/31 09:36:45;;;;;;;25.38;14.32;;;;;;;4.16;100.00;99176.00;5030529;28;20080;-84
2023/12/31 09:39:11;;;;;;;19.70;12.55;;;;;;;4.31;100.00;99199.66;5013724;28;20083;-84
2023/12/31 09:41:37;;;;;;;20.92;13.57;;;;;;;4.33;100.00;99198.72;5030540;28;20583;-86
2023/12/31 09:44:03;;;;;;;18.27;12.27;;;;;;;4.08;100.00;99146.19;5030392;28;20182;-84
2023/12/31 09:46:32;;;;;;;19.20;11.93;;;;;;;4.44;100.00;99193.28;5030505;28;20072;-84
2023/12/31 09:48:59;;;;;;;24.83;14.38;;;;;;;4.49;100.00;99188.81;5030133;28;20030;-84
2023/12/31 09:51:25;;;;;;;23.55;16.27;;;;;;;4.50;100.00;99180.19;5030349;28;20029;-82
2023/12/31 09:53:54;;;;;;;21.35;12.68;;;;;;;4.55;100.00;99175.75;5013686;28;20029;-83
2023/12/31 09:56:22;;;;;;;21.30;13.23;;;;;;;4.53;100.00;99167.22;5030397;28;20048;-86
2023/12/31 09:58:51;;;;;;;28.77;19.90;;;;;;;4.43;100.00;99143.44;5047258;28;20039;-82
2023/12/31 10:01:17;;;;;;;22.40;14.65;;;;;;;4.49;100.00;99142.41;5052592;28;20033;-82
2023/12/31 10:03:45;;;;;;;18.52;12.40;;;;;;;4.57;100.00;99139.59;5052332;28;20506;-82
2023/12/31 10:06:11;;;;;;;22.88;14.68;;;;;;;4.55;100.00;99125.88;5052412;28;20025;-82
2023/12/31 10:08:38;;;;;;;20.55;10.73;;;;;;;4.78;100.00;99157.00;5052164;28;20017;-82
2023/12/31 10:11:03;;;;;;;16.50;9.90;;;;;;;4.63;100.00;99122.19;5052417;28;20409;-82
2023/12/31 10:13:31;;;;;;;19.23;12.43;;;;;;;4.67;100.00;99110.03;5052526;28;20104;-82
2023/12/31 10:15:57;;;;;;;19.95;11.55;;;;;;;4.69;100.00;99108.25;5051055;28;20024;-82
2023/12/31 10:18:25;;;;;;;18.33;9.70;;;;;;;4.74;100.00;99124.44;5052549;28;20021;-83
2023/12/31 10:20:52;;;;;;;18.98;10.43;;;;;;;4.93;100.00;99148.78;5052472;28;20017;-82
2023/12/31 10:23:18;;;;;;;21.90;12.32;;;;;;;4.94;100.00;99144.47;5051182;28;20039;-82
2023/12/31 10:25:44;;;;;;;19.75;11.25;;;;;;;4.81;100.00;99112.19;5052562;28;20144;-82
2023/12/31 10:28:09;;;;;;;17.30;10.75;;;;;;;4.76;100.00;99107.16;5052192;28;20104;-82
2023/12/31 10:30:38;;;;;;;18.73;11.77;;;;;;;4.96;100.00;99135.75;5052434;28;20122;-82
2023/12/31 10:33:09;;;;;;;17.83;11.75;;;;;;;4.72;100.00;99096.13;5052192;28;20017;-82
2023/12/31 10:35:35;;;;;;;25.57;12.63;;;;;;;4.82;100.00;99108.72;5052474;28;20123;-82
2023/12/31 10:38:04;;;;;;;23.50;12.70;;;;;;;4.85;100.00;99117.22;5052295;28;20029;-82
2023/12/31 10:40:30;;;;;;;25.95;15.48;;;;;;;4.87;100.00;99114.56;5052122;28;20048;-82
2023/12/31 10:42:56;;;;;;;23.85;14.55;;;;;;;4.88;100.00;99111.09;5073088;28;20456;-82
2023/12/31 10:45:22;;;;;;;20.95;14.15;;;;;;;4.83;100.00;99098.34;5072334;28;20031;-86
2023/12/31 10:47:53;;;;;;;22.67;14.60;;;;;;;4.84;100.00;99104.34;5089703;28;20534;-84
2023/12/31 10:50:25;;;;;;;23.60;13.75;;;;;;;4.75;100.00;99085.69;5089646;28;20034;-83
2023/12/31 10:52:53;;;;;;;24.70;13.98;;;;;;;4.84;100.00;99088.84;5090160;28;20130;-84
2023/12/31 10:55:19;;;;;;;24.77;14.43;;;;;;;4.82;100.00;99073.44;5090290;28;20020;-83
2023/12/31 10:57:46;;;;;;;24.25;14.38;;;;;;;4.86;100.00;99072.44;5090273;28;20035;-83
2023/12/31 11:00:13;;;;;;;58.63;37.33;;;;;;;4.78;100.00;99047.78;5090497;28;20105;-83
2023/12/31 11:02:41;;;;;;;27.90;20.08;;;;;;;4.82;100.00;99046.81;5089950;28;20024;-83
2023/12/31 11:05:08;;;;;;;26.13;15.18;;;;;;;4.60;100.00;99008.81;5090013;28;20056;-82
2023/12/31 11:07:35;;;;;;;27.90;15.45;;;;;;;4.92;100.00;99050.75;5090820;28;20038;-83
2023/12/31 11:10:01;;;;;;;21.17;14.30;;;;;;;4.81;100.00;99021.91;5090285;28;20090;-83